Main page
METAR-TAF:

METAR-TAF

Airports :

Wunstorf Air Base

Wunstorf, Germany

latitude: 52-27N, longitude: 009-26E, elevation: 57 m

Current weather observation

The report was made 29 minutes ago, at 11:20 UTC
Wind 12 kt from the West/Northwest
Temperature 8°C
Humidity 53%
Pressure 1020 hPa
Visibility 10 km or more
Broken clouds at a height of 4000 ft

METAR: ETNW 011120Z 30012KT 9999 BKN040 08/M01 Q1020 BLU BLU+

Time: 13:49 (11:49 UTC)

Forecast

The report was made 1 hour and 29 minutes ago, at 10:20 UTC
Forecast valid from 01 at 11 UTC to 02 at 11 UTC
Wind 10 kt from the West/Southwest
Visibility 10 km or more
Few clouds at a height of 2000 ft
Broken clouds at a height of 4000 ft

TAF: ETNW 011020Z 0111/0211 25010KT 9999 NSW FEW020 BKN040 BY ETGL

Weather observations and forecasts of more than 4000 airports (METAR and TAF reports).

The available stations are represented by yellow and red dots on the map.

Hover mouse over dot to see the name of the station.

Then click to see weather observations and forecasts.

To change the map : click on the green buttons with a black cross to zoom in, on the green button with a dash to zoom out, or on the green arrows for adjacent maps.


METAR-TAF: